sensor_id;sensor_type;location;lat;lon;timestamp;pressure;altitude;pressure_sealevel;temperature;humidity
22018;BME280;11173;51.050;7.108;2022-09-14T00:04:39;98707.56;;;17.84;60.43
22018;BME280;11173;51.050;7.108;2022-09-14T00:09:41;98698.09;;;17.81;60.35
22018;BME280;11173;51.050;7.108;2022-09-14T00:14:43;98685.47;;;17.77;60.74
22018;BME280;11173;51.050;7.108;2022-09-14T00:19:43;98677.53;;;17.75;61.35
22018;BME280;11173;51.050;7.108;2022-09-14T00:24:44;98671.88;;;17.75;61.23
22018;BME280;11173;51.050;7.108;2022-09-14T00:29:46;98661.88;;;17.74;61.91
22018;BME280;11173;51.050;7.108;2022-09-14T00:34:47;98640.06;;;17.69;64.34
22018;BME280;11173;51.050;7.108;2022-09-14T00:39:48;98623.09;;;17.63;68.23
22018;BME280;11173;51.050;7.108;2022-09-14T00:49:49;98606.53;;;17.50;70.60
22018;BME280;11173;51.050;7.108;2022-09-14T00:54:53;98600.84;;;17.45;68.95
22018;BME280;11173;51.050;7.108;2022-09-14T00:59:54;98594.34;;;17.39;69.38
22018;BME280;11173;51.050;7.108;2022-09-14T01:04:55;98603.09;;;17.41;66.57
22018;BME280;11173;51.050;7.108;2022-09-14T01:15:10;98605.41;;;17.42;66.71
22018;BME280;11173;51.050;7.108;2022-09-14T01:30:34;98597.88;;;17.54;64.93
22018;BME280;11173;51.050;7.108;2022-09-14T01:35:48;98607.19;;;17.60;63.96
22018;BME280;11173;51.050;7.108;2022-09-14T01:40:50;98608.22;;;17.63;64.06
22018;BME280;11173;51.050;7.108;2022-09-14T01:45:53;98601.81;;;17.62;63.85
22018;BME280;11173;51.050;7.108;2022-09-14T01:50:57;98610.13;;;17.72;64.09
22018;BME280;11173;51.050;7.108;2022-09-14T01:56:19;98604.28;;;17.75;64.12
22018;BME280;11173;51.050;7.108;2022-09-14T02:01:27;98610.97;;;17.78;63.58
22018;BME280;11173;51.050;7.108;2022-09-14T02:06:38;98604.06;;;17.79;63.66
22018;BME280;11173;51.050;7.108;2022-09-14T02:11:41;98607.13;;;17.81;63.73
22018;BME280;11173;51.050;7.108;2022-09-14T02:16:42;98613.09;;;17.83;63.91
22018;BME280;11173;51.050;7.108;2022-09-14T02:21:45;98600.53;;;17.84;63.86
22018;BME280;11173;51.050;7.108;2022-09-14T02:26:47;98598.00;;;17.86;63.91
22018;BME280;11173;51.050;7.108;2022-09-14T02:31:59;98591.88;;;17.87;63.92
22018;BME280;11173;51.050;7.108;2022-09-14T02:47:56;98565.50;;;17.91;63.61
22018;BME280;11173;51.050;7.108;2022-09-14T02:58:35;98549.13;;;17.89;63.86
22018;BME280;11173;51.050;7.108;2022-09-14T03:03:36;98544.75;;;17.88;63.61
22018;BME280;11173;51.050;7.108;2022-09-14T03:08:37;98539.09;;;17.88;63.47
22018;BME280;11173;51.050;7.108;2022-09-14T03:13:38;98533.97;;;17.86;63.74
22018;BME280;11173;51.050;7.108;2022-09-14T03:18:38;98528.84;;;17.85;63.70
22018;BME280;11173;51.050;7.108;2022-09-14T03:23:44;98525.75;;;17.83;63.81
22018;BME280;11173;51.050;7.108;2022-09-14T03:28:50;98519.56;;;17.79;63.53
22018;BME280;11173;51.050;7.108;2022-09-14T03:33:55;98519.06;;;17.80;63.61
22018;BME280;11173;51.050;7.108;2022-09-14T03:38:58;98513.91;;;17.79;63.61
22018;BME280;11173;51.050;7.108;2022-09-14T03:43:58;98509.28;;;17.76;64.23
22018;BME280;11173;51.050;7.108;2022-09-14T03:48:59;98498.03;;;17.76;63.87
22018;BME280;11173;51.050;7.108;2022-09-14T03:53:59;98506.75;;;17.78;63.87
22018;BME280;11173;51.050;7.108;2022-09-14T03:59:00;98503.94;;;17.78;64.10
22018;BME280;11173;51.050;7.108;2022-09-14T04:04:00;98502.38;;;17.77;63.22
22018;BME280;11173;51.050;7.108;2022-09-14T04:09:01;98500.56;;;17.74;63.83
22018;BME280;11173;51.050;7.108;2022-09-14T04:14:03;98510.28;;;17.73;64.05
22018;BME280;11173;51.050;7.108;2022-09-14T04:19:04;98504.09;;;17.68;64.68
22018;BME280;11173;51.050;7.108;2022-09-14T04:24:05;98499.25;;;17.69;64.50
22018;BME280;11173;51.050;7.108;2022-09-14T04:29:05;98490.00;;;17.68;64.59
22018;BME280;11173;51.050;7.108;2022-09-14T04:34:05;98491.09;;;17.71;64.58
22018;BME280;11173;51.050;7.108;2022-09-14T04:39:06;98494.94;;;17.74;64.71
22018;BME280;11173;51.050;7.108;2022-09-14T04:44:06;98489.09;;;17.77;64.69
22018;BME280;11173;51.050;7.108;2022-09-14T04:49:07;98486.03;;;17.81;65.17
22018;BME280;11173;51.050;7.108;2022-09-14T04:54:08;98477.88;;;17.83;65.00
22018;BME280;11173;51.050;7.108;2022-09-14T04:59:12;98477.91;;;17.88;64.98
22018;BME280;11173;51.050;7.108;2022-09-14T05:04:15;98480.50;;;17.92;65.46
22018;BME280;11173;51.050;7.108;2022-09-14T05:09:16;98477.94;;;17.94;65.18
22018;BME280;11173;51.050;7.108;2022-09-14T05:14:18;98474.38;;;17.94;65.18
22018;BME280;11173;51.050;7.108;2022-09-14T05:19:18;98472.31;;;17.94;65.06
22018;BME280;11173;51.050;7.108;2022-09-14T05:24:19;98463.09;;;17.94;65.24
22018;BME280;11173;51.050;7.108;2022-09-14T05:29:19;98463.09;;;17.94;65.87
22018;BME280;11173;51.050;7.108;2022-09-14T05:34:20;98458.69;;;17.87;67.48
22018;BME280;11173;51.050;7.108;2022-09-14T05:39:20;98450.47;;;17.83;67.29
22018;BME280;11173;51.050;7.108;2022-09-14T05:44:21;98445.78;;;17.75;68.21
22018;BME280;11173;51.050;7.108;2022-09-14T05:49:21;98457.00;;;17.69;67.17
22018;BME280;11173;51.050;7.108;2022-09-14T05:54:24;98450.78;;;17.59;67.70
22018;BME280;11173;51.050;7.108;2022-09-14T05:59:24;98454.75;;;17.53;67.65
22018;BME280;11173;51.050;7.108;2022-09-14T06:04:25;98448.31;;;17.46;67.92
22018;BME280;11173;51.050;7.108;2022-09-14T06:09:25;98455.44;;;17.42;69.75
22018;BME280;11173;51.050;7.108;2022-09-14T06:14:26;98446.19;;;17.36;68.42
22018;BME280;11173;51.050;7.108;2022-09-14T06:19:26;98457.16;;;17.34;69.17
22018;BME280;11173;51.050;7.108;2022-09-14T06:24:26;98455.06;;;17.28;70.91
22018;BME280;11173;51.050;7.108;2022-09-14T06:29:27;98459.38;;;17.24;69.94
22018;BME280;11173;51.050;7.108;2022-09-14T06:34:27;98455.72;;;17.18;69.02
22018;BME280;11173;51.050;7.108;2022-09-14T06:39:28;98460.31;;;17.15;69.26
22018;BME280;11173;51.050;7.108;2022-09-14T06:44:28;98453.53;;;17.07;70.48
22018;BME280;11173;51.050;7.108;2022-09-14T06:49:29;98462.44;;;17.00;71.66
22018;BME280;11173;51.050;7.108;2022-09-14T06:54:29;98463.91;;;16.95;70.14
22018;BME280;11173;51.050;7.108;2022-09-14T06:59:29;98474.09;;;16.93;69.38
22018;BME280;11173;51.050;7.108;2022-09-14T07:04:30;98468.97;;;16.91;69.62
22018;BME280;11173;51.050;7.108;2022-09-14T07:09:30;98474.25;;;16.83;70.32
22018;BME280;11173;51.050;7.108;2022-09-14T07:14:31;98459.84;;;16.76;71.23
22018;BME280;11173;51.050;7.108;2022-09-14T07:19:31;98469.38;;;16.63;71.58
22018;BME280;11173;51.050;7.108;2022-09-14T07:24:32;98464.56;;;16.49;71.67
22018;BME280;11173;51.050;7.108;2022-09-14T07:29:32;98460.84;;;16.37;72.63
22018;BME280;11173;51.050;7.108;2022-09-14T07:34:32;98464.25;;;16.26;72.90
22018;BME280;11173;51.050;7.108;2022-09-14T07:39:33;98462.63;;;16.20;72.81
22018;BME280;11173;51.050;7.108;2022-09-14T07:44:34;98459.66;;;16.08;74.55
22018;BME280;11173;51.050;7.108;2022-09-14T07:49:34;98454.94;;;16.00;75.19
22018;BME280;11173;51.050;7.108;2022-09-14T07:54:35;98449.91;;;15.89;74.59
22018;BME280;11173;51.050;7.108;2022-09-14T07:59:35;98449.59;;;15.72;74.20
22018;BME280;11173;51.050;7.108;2022-09-14T08:04:36;98445.84;;;15.60;74.76
22018;BME280;11173;51.050;7.108;2022-09-14T08:09:39;98440.53;;;15.47;74.15
22018;BME280;11173;51.050;7.108;2022-09-14T08:14:40;98443.78;;;15.31;75.26
22018;BME280;11173;51.050;7.108;2022-09-14T08:19:40;98444.66;;;15.22;75.23
22018;BME280;11173;51.050;7.108;2022-09-14T08:24:40;98438.53;;;15.09;77.02
22018;BME280;11173;51.050;7.108;2022-09-14T08:29:41;98441.34;;;15.09;77.07
22018;BME280;11173;51.050;7.108;2022-09-14T08:34:42;98438.84;;;15.11;76.93
22018;BME280;11173;51.050;7.108;2022-09-14T08:39:42;98434.38;;;15.04;76.70
22018;BME280;11173;51.050;7.108;2022-09-14T08:44:44;98434.09;;;15.02;76.82
22018;BME280;11173;51.050;7.108;2022-09-14T08:50:16;98448.78;;;14.97;78.16
22018;BME280;11173;51.050;7.108;2022-09-14T08:55:37;98440.56;;;14.94;77.95
22018;BME280;11173;51.050;7.108;2022-09-14T09:00:44;98447.13;;;14.90;76.79
22018;BME280;11173;51.050;7.108;2022-09-14T09:11:14;98443.56;;;14.90;78.44
22018;BME280;11173;51.050;7.108;2022-09-14T09:16:20;98451.19;;;14.89;78.82
22018;BME280;11173;51.050;7.108;2022-09-14T09:21:27;98457.69;;;14.96;77.91
22018;BME280;11173;51.050;7.108;2022-09-14T09:26:31;98458.47;;;14.96;77.40
22018;BME280;11173;51.050;7.108;2022-09-14T09:31:33;98470.44;;;14.97;77.18
22018;BME280;11173;51.050;7.108;2022-09-14T09:36:37;98465.81;;;14.94;77.92
22018;BME280;11173;51.050;7.108;2022-09-14T09:42:02;98452.84;;;14.96;78.58
22018;BME280;11173;51.050;7.108;2022-09-14T09:47:05;98443.38;;;14.94;77.69
22018;BME280;11173;51.050;7.108;2022-09-14T09:52:09;98444.44;;;14.96;77.84
22018;BME280;11173;51.050;7.108;2022-09-14T09:57:33;98454.19;;;15.01;78.61
22018;BME280;11173;51.050;7.108;2022-09-14T10:02:34;98439.81;;;15.08;77.85
22018;BME280;11173;51.050;7.108;2022-09-14T10:07:54;98444.75;;;15.13;77.78
22018;BME280;11173;51.050;7.108;2022-09-14T10:12:56;98427.91;;;15.13;77.80
22018;BME280;11173;51.050;7.108;2022-09-14T10:18:13;98425.91;;;15.14;78.02
22018;BME280;11173;51.050;7.108;2022-09-14T10:28:32;98416.69;;;15.13;77.66
22018;BME280;11173;51.050;7.108;2022-09-14T10:33:33;98423.69;;;15.18;77.63
22018;BME280;11173;51.050;7.108;2022-09-14T10:39:45;98425.22;;;15.19;78.17
22018;BME280;11173;51.050;7.108;2022-09-14T10:55:22;98411.97;;;15.19;79.03
22018;BME280;11173;51.050;7.108;2022-09-14T11:00:38;98406.25;;;15.28;79.30
22018;BME280;11173;51.050;7.108;2022-09-14T11:05:46;98414.78;;;15.34;78.20
22018;BME280;11173;51.050;7.108;2022-09-14T11:22:11;98434.31;;;15.58;76.00
22018;BME280;11173;51.050;7.108;2022-09-14T11:27:39;98427.81;;;15.67;75.25
22018;BME280;11173;51.050;7.108;2022-09-14T11:32:48;98392.69;;;15.71;78.99
22018;BME280;11173;51.050;7.108;2022-09-14T11:38:11;98385.53;;;15.85;79.24
22018;BME280;11173;51.050;7.108;2022-09-14T11:43:17;98388.84;;;16.04;77.43
22018;BME280;11173;51.050;7.108;2022-09-14T11:48:27;98383.19;;;16.19;76.54
22018;BME280;11173;51.050;7.108;2022-09-14T11:53:31;98378.72;;;16.27;76.10
22018;BME280;11173;51.050;7.108;2022-09-14T11:58:32;98382.94;;;16.38;76.32
22018;BME280;11173;51.050;7.108;2022-09-14T12:03:53;98379.06;;;16.56;77.90
22018;BME280;11173;51.050;7.108;2022-09-14T12:19:25;98367.34;;;17.62;73.91
22018;BME280;11173;51.050;7.108;2022-09-14T12:24:26;98369.09;;;17.91;74.16
22018;BME280;11173;51.050;7.108;2022-09-14T12:29:31;98377.75;;;18.25;73.25
22018;BME280;11173;51.050;7.108;2022-09-14T12:34:32;98358.38;;;18.50;70.67
22018;BME280;11173;51.050;7.108;2022-09-14T12:39:34;98373.59;;;18.69;70.93
22018;BME280;11173;51.050;7.108;2022-09-14T12:49:35;98366.41;;;18.74;70.96
22018;BME280;11173;51.050;7.108;2022-09-14T12:54:49;98356.41;;;18.73;70.18
22018;BME280;11173;51.050;7.108;2022-09-14T13:05:28;98346.50;;;18.34;69.19
22018;BME280;11173;51.050;7.108;2022-09-14T13:10:31;98349.97;;;18.12;69.99
22018;BME280;11173;51.050;7.108;2022-09-14T13:15:44;98351.69;;;17.98;69.79
22018;BME280;11173;51.050;7.108;2022-09-14T13:20:55;98324.94;;;17.77;69.67
22018;BME280;11173;51.050;7.108;2022-09-14T13:25:56;98321.47;;;17.56;70.76
22018;BME280;11173;51.050;7.108;2022-09-14T13:30:59;98319.88;;;17.49;70.74
22018;BME280;11173;51.050;7.108;2022-09-14T13:36:02;98301.81;;;17.29;71.54
22018;BME280;11173;51.050;7.108;2022-09-14T13:41:12;98315.28;;;17.20;71.53
22018;BME280;11173;51.050;7.108;2022-09-14T13:46:14;98333.13;;;17.11;71.54
22018;BME280;11173;51.050;7.108;2022-09-14T13:51:15;98344.34;;;17.05;71.18
22018;BME280;11173;51.050;7.108;2022-09-14T14:01:25;98349.78;;;16.88;71.13
22018;BME280;11173;51.050;7.108;2022-09-14T14:06:29;98351.75;;;16.82;70.71
22018;BME280;11173;51.050;7.108;2022-09-14T14:16:35;98314.22;;;16.65;72.62
22018;BME280;11173;51.050;7.108;2022-09-14T14:21:36;98317.31;;;16.67;72.99
22018;BME280;11173;51.050;7.108;2022-09-14T14:26:36;98307.28;;;16.60;73.82
22018;BME280;11173;51.050;7.108;2022-09-14T14:31:36;98303.94;;;16.56;73.59
22018;BME280;11173;51.050;7.108;2022-09-14T14:36:37;98320.44;;;16.48;73.97
22018;BME280;11173;51.050;7.108;2022-09-14T14:41:37;98334.22;;;16.46;72.17
22018;BME280;11173;51.050;7.108;2022-09-14T14:46:39;98353.06;;;16.40;72.14
22018;BME280;11173;51.050;7.108;2022-09-14T14:51:40;98312.88;;;16.34;73.64
22018;BME280;11173;51.050;7.108;2022-09-14T14:56:41;98302.41;;;16.35;73.14
22018;BME280;11173;51.050;7.108;2022-09-14T15:01:43;98311.91;;;16.37;73.74
22018;BME280;11173;51.050;7.108;2022-09-14T15:06:47;98305.34;;;16.46;73.44
22018;BME280;11173;51.050;7.108;2022-09-14T15:11:49;98299.53;;;16.49;72.75
22018;BME280;11173;51.050;7.108;2022-09-14T15:16:50;98292.34;;;16.48;72.58
22018;BME280;11173;51.050;7.108;2022-09-14T15:21:50;98293.06;;;16.43;72.25
22018;BME280;11173;51.050;7.108;2022-09-14T15:26:51;98282.44;;;16.33;74.48
22018;BME280;11173;51.050;7.108;2022-09-14T15:31:53;98273.94;;;16.27;74.52
22018;BME280;11173;51.050;7.108;2022-09-14T15:36:54;98282.63;;;16.23;74.76
22018;BME280;11173;51.050;7.108;2022-09-14T15:41:55;98300.53;;;16.26;74.62
22018;BME280;11173;51.050;7.108;2022-09-14T15:46:55;98315.81;;;16.25;74.92
22018;BME280;11173;51.050;7.108;2022-09-14T15:51:56;98312.81;;;16.28;74.56
22018;BME280;11173;51.050;7.108;2022-09-14T15:56:57;98311.09;;;16.37;74.20
22018;BME280;11173;51.050;7.108;2022-09-14T16:02:02;98303.47;;;16.37;74.09
22018;BME280;11173;51.050;7.108;2022-09-14T16:07:04;98308.38;;;16.42;73.25
22018;BME280;11173;51.050;7.108;2022-09-14T16:12:10;98300.97;;;16.45;73.68
22018;BME280;11173;51.050;7.108;2022-09-14T16:17:11;98310.75;;;16.49;73.53
22018;BME280;11173;51.050;7.108;2022-09-14T16:22:11;98309.53;;;16.56;73.07
22018;BME280;11173;51.050;7.108;2022-09-14T16:27:11;98302.44;;;16.61;72.40
22018;BME280;11173;51.050;7.108;2022-09-14T16:32:12;98307.56;;;16.62;72.78
22018;BME280;11173;51.050;7.108;2022-09-14T16:37:12;98327.31;;;16.68;71.98
22018;BME280;11173;51.050;7.108;2022-09-14T16:42:12;98326.03;;;16.69;71.73
22018;BME280;11173;51.050;7.108;2022-09-14T16:47:13;98337.78;;;16.67;71.54
22018;BME280;11173;51.050;7.108;2022-09-14T16:52:13;98356.41;;;16.65;71.48
22018;BME280;11173;51.050;7.108;2022-09-14T16:57:14;98349.19;;;16.58;71.59
22018;BME280;11173;51.050;7.108;2022-09-14T17:02:14;98357.25;;;16.50;71.36
22018;BME280;11173;51.050;7.108;2022-09-14T17:07:16;98360.50;;;16.43;71.33
22018;BME280;11173;51.050;7.108;2022-09-14T17:12:16;98372.66;;;16.35;71.22
22018;BME280;11173;51.050;7.108;2022-09-14T17:17:17;98372.81;;;16.25;71.03
22018;BME280;11173;51.050;7.108;2022-09-14T17:22:17;98369.34;;;16.16;70.84
22018;BME280;11173;51.050;7.108;2022-09-14T17:27:18;98364.56;;;16.01;70.97
22018;BME280;11173;51.050;7.108;2022-09-14T17:32:19;98362.84;;;15.89;71.14
22018;BME280;11173;51.050;7.108;2022-09-14T17:37:19;98352.97;;;15.79;71.13
22018;BME280;11173;51.050;7.108;2022-09-14T17:42:20;98352.03;;;15.67;70.93
22018;BME280;11173;51.050;7.108;2022-09-14T17:47:20;98347.03;;;15.56;70.88
22018;BME280;11173;51.050;7.108;2022-09-14T17:52:20;98344.53;;;15.43;71.08
22018;BME280;11173;51.050;7.108;2022-09-14T17:57:21;98343.59;;;15.31;71.73
22018;BME280;11173;51.050;7.108;2022-09-14T18:02:21;98354.63;;;15.20;72.13
22018;BME280;11173;51.050;7.108;2022-09-14T18:07:25;98371.81;;;15.13;72.31
22018;BME280;11173;51.050;7.108;2022-09-14T18:12:25;98386.34;;;15.11;71.50
22018;BME280;11173;51.050;7.108;2022-09-14T18:17:26;98377.06;;;15.05;72.15
22018;BME280;11173;51.050;7.108;2022-09-14T18:22:26;98382.56;;;15.00;72.02
22018;BME280;11173;51.050;7.108;2022-09-14T18:27:27;98386.03;;;14.95;72.14
22018;BME280;11173;51.050;7.108;2022-09-14T18:32:27;98387.47;;;14.90;71.85
22018;BME280;11173;51.050;7.108;2022-09-14T18:37:27;98386.13;;;14.85;72.36
22018;BME280;11173;51.050;7.108;2022-09-14T18:42:28;98387.38;;;14.84;72.01
22018;BME280;11173;51.050;7.108;2022-09-14T18:47:28;98393.41;;;14.83;72.01
22018;BME280;11173;51.050;7.108;2022-09-14T18:52:28;98409.03;;;14.84;72.10
22018;BME280;11173;51.050;7.108;2022-09-14T18:57:29;98413.88;;;14.83;72.37
22018;BME280;11173;51.050;7.108;2022-09-14T19:02:29;98419.78;;;14.85;72.10
22018;BME280;11173;51.050;7.108;2022-09-14T19:07:30;98414.78;;;14.80;72.13
22018;BME280;11173;51.050;7.108;2022-09-14T19:12:30;98405.19;;;14.72;73.34
22018;BME280;11173;51.050;7.108;2022-09-14T19:17:31;98407.41;;;14.68;73.08
22018;BME280;11173;51.050;7.108;2022-09-14T19:22:32;98419.88;;;14.67;72.25
22018;BME280;11173;51.050;7.108;2022-09-14T19:27:32;98413.38;;;14.61;72.55
22018;BME280;11173;51.050;7.108;2022-09-14T19:32:32;98414.81;;;14.56;72.84
22018;BME280;11173;51.050;7.108;2022-09-14T19:37:33;98431.81;;;14.52;72.68
22018;BME280;11173;51.050;7.108;2022-09-14T19:42:33;98427.16;;;14.49;72.67
22018;BME280;11173;51.050;7.108;2022-09-14T19:47:33;98442.13;;;14.46;72.72
22018;BME280;11173;51.050;7.108;2022-09-14T19:52:34;98444.63;;;14.44;72.66
22018;BME280;11173;51.050;7.108;2022-09-14T19:57:34;98441.22;;;14.40;72.91
22018;BME280;11173;51.050;7.108;2022-09-14T20:02:36;98437.16;;;14.41;73.51
22018;BME280;11173;51.050;7.108;2022-09-14T20:07:36;98439.50;;;14.43;73.34
22018;BME280;11173;51.050;7.108;2022-09-14T20:12:37;98438.25;;;14.44;73.17
22018;BME280;11173;51.050;7.108;2022-09-14T20:17:37;98440.59;;;14.45;73.12
22018;BME280;11173;51.050;7.108;2022-09-14T20:22:39;98436.50;;;14.46;73.03
22018;BME280;11173;51.050;7.108;2022-09-14T20:27:39;98434.47;;;14.47;73.00
22018;BME280;11173;51.050;7.108;2022-09-14T20:32:40;98449.28;;;14.47;72.76
22018;BME280;11173;51.050;7.108;2022-09-14T20:37:40;98458.94;;;14.46;72.80
22018;BME280;11173;51.050;7.108;2022-09-14T20:42:42;98464.53;;;14.46;72.75
22018;BME280;11173;51.050;7.108;2022-09-14T20:47:43;98461.56;;;14.50;73.21
22018;BME280;11173;51.050;7.108;2022-09-14T20:52:43;98457.91;;;14.59;72.99
22018;BME280;11173;51.050;7.108;2022-09-14T20:57:43;98458.81;;;14.65;72.94
22018;BME280;11173;51.050;7.108;2022-09-14T21:02:44;98458.81;;;14.65;72.74
22018;BME280;11173;51.050;7.108;2022-09-14T21:07:44;98459.31;;;14.63;72.55
22018;BME280;11173;51.050;7.108;2022-09-14T21:12:50;98464.13;;;14.63;72.45
22018;BME280;11173;51.050;7.108;2022-09-14T21:17:51;98471.47;;;14.60;72.06
22018;BME280;11173;51.050;7.108;2022-09-14T21:22:51;98477.91;;;14.51;72.41
22018;BME280;11173;51.050;7.108;2022-09-14T21:27:52;98483.22;;;14.49;72.82
22018;BME280;11173;51.050;7.108;2022-09-14T21:32:52;98483.22;;;14.49;72.66
22018;BME280;11173;51.050;7.108;2022-09-14T21:37:52;98482.41;;;14.49;72.81
22018;BME280;11173;51.050;7.108;2022-09-14T21:42:53;98482.63;;;14.45;72.53
22018;BME280;11173;51.050;7.108;2022-09-14T21:47:53;98493.19;;;14.41;72.65
22018;BME280;11173;51.050;7.108;2022-09-14T21:52:54;98499.47;;;14.36;72.53
22018;BME280;11173;51.050;7.108;2022-09-14T21:57:54;98495.91;;;14.36;72.33
22018;BME280;11173;51.050;7.108;2022-09-14T22:02:54;98490.00;;;14.34;72.76
22018;BME280;11173;51.050;7.108;2022-09-14T22:07:55;98497.59;;;14.33;72.58
22018;BME280;11173;51.050;7.108;2022-09-14T22:12:55;98496.06;;;14.32;72.17
22018;BME280;11173;51.050;7.108;2022-09-14T22:17:55;98506.06;;;14.24;72.59
22018;BME280;11173;51.050;7.108;2022-09-14T22:22:56;98509.50;;;14.19;71.97
22018;BME280;11173;51.050;7.108;2022-09-14T22:27:56;98514.66;;;14.11;71.97
22018;BME280;11173;51.050;7.108;2022-09-14T22:32:56;98522.16;;;14.05;72.49
22018;BME280;11173;51.050;7.108;2022-09-14T22:37:57;98523.56;;;14.00;72.13
22018;BME280;11173;51.050;7.108;2022-09-14T22:42:57;98532.28;;;13.93;72.09
22018;BME280;11173;51.050;7.108;2022-09-14T22:47:58;98525.63;;;13.90;72.23
22018;BME280;11173;51.050;7.108;2022-09-14T22:52:58;98531.84;;;13.85;72.01
22018;BME280;11173;51.050;7.108;2022-09-14T22:57:58;98533.56;;;13.83;72.14
22018;BME280;11173;51.050;7.108;2022-09-14T23:02:59;98525.78;;;13.78;72.30
22018;BME280;11173;51.050;7.108;2022-09-14T23:08:00;98541.47;;;13.75;72.21
22018;BME280;11173;51.050;7.108;2022-09-14T23:13:00;98535.75;;;13.69;72.15
22018;BME280;11173;51.050;7.108;2022-09-14T23:18:01;98531.72;;;13.61;72.39
22018;BME280;11173;51.050;7.108;2022-09-14T23:23:01;98542.59;;;13.59;71.82
22018;BME280;11173;51.050;7.108;2022-09-14T23:28:03;98542.94;;;13.52;72.08
22018;BME280;11173;51.050;7.108;2022-09-14T23:33:04;98544.00;;;13.45;72.36
22018;BME280;11173;51.050;7.108;2022-09-14T23:38:04;98545.41;;;13.41;72.81
22018;BME280;11173;51.050;7.108;2022-09-14T23:43:05;98553.97;;;13.37;72.80
22018;BME280;11173;51.050;7.108;2022-09-14T23:48:06;98553.50;;;13.39;73.31
22018;BME280;11173;51.050;7.108;2022-09-14T23:53:07;98552.88;;;13.44;73.02
22018;BME280;11173;51.050;7.108;2022-09-14T23:58:07;98551.94;;;13.47;72.85
